Time;durP1;ratioP1;P1;durP2;ratioP2;P2;SDS_P1;SDS_P2;PMS_P1;PMS_P2;Temp;Humidity;BMP_temperature;BMP_pressure;BME280_temperature;BME280_humidity;BME280_pressure;Samples;Min_cycle;Max_cycle;Signal;HPM_P1;HPM_P2
2024/01/16 00:00:26;;;;;;;;;;;;;;;0.77;100.00;100942.06;5096376;28;20007;-74
2024/01/16 00:02:52;;;;;;;;;;;;;;;0.67;100.00;100948.06;5096098;28;19916;-74
2024/01/16 00:05:17;;;;;;;;;;;;;;;0.63;100.00;100948.06;5093069;28;20204;-74
2024/01/16 00:07:42;;;;;;;;;;;;;;;0.60;100.00;100950.63;5075913;28;19958;-74
2024/01/16 00:10:07;;;;;;;;;;;;;;;0.61;100.00;100954.94;5077622;28;19920;-74
2024/01/16 00:12:33;;;;;;;;;;;;;;;0.66;100.00;100964.41;5096613;28;19995;-74
2024/01/16 00:14:58;;;;;;;;;;;;;;;0.69;100.00;100961.84;5095777;28;19986;-74
2024/01/16 00:17:23;;;;;;;;;;;;;;;0.69;100.00;100958.38;5095800;28;19911;-74
2024/01/16 00:19:49;;;;;;;;;;;;;;;0.55;100.00;100959.22;5095868;28;20264;-74
2024/01/16 00:22:14;;;;;;;;;;;;;;;0.42;100.00;100961.75;5080259;28;20211;-74
2024/01/16 00:24:40;;;;;;;;;;;;;;;0.37;100.00;100954.88;5088573;28;20034;-74
2024/01/16 00:27:05;;;;;;;;;;;;;;;0.40;100.00;100969.50;5082541;28;19912;-74
2024/01/16 00:29:30;;;;;;;;;;;;;;;0.43;100.00;100963.47;5086786;28;19916;-74
2024/01/16 00:31:56;;;;;;;;;;;;;;;0.42;100.00;100960.06;5095264;28;19920;-74
2024/01/16 00:34:21;;;;;;;;;;;;;;;0.40;100.00;100966.03;5096217;28;20021;-74
2024/01/16 00:36:46;;;;;;;;;;;;;;;0.42;100.00;100974.63;5088562;28;19921;-74
2024/01/16 00:39:11;;;;;;;;;;;;;;;0.43;100.00;100969.50;5083441;28;19924;-74
2024/01/16 00:41:37;;;;;;;;;;;;;;;0.46;100.00;100964.34;5083951;28;19951;-74
2024/01/16 00:44:02;;;;;;;;;;;;;;;0.50;100.00;100970.38;5095532;28;19920;-74
2024/01/16 00:46:28;;;;;;;;;;;;;;;0.49;100.00;100969.53;5093210;28;20186;-74
2024/01/16 00:48:53;;;;;;;;;;;;;;;0.48;100.00;100970.38;5082787;28;20263;-74
2024/01/16 00:51:18;;;;;;;;;;;;;;;0.48;100.00;100972.09;5115957;28;19982;-74
2024/01/16 00:53:43;;;;;;;;;;;;;;;0.44;100.00;100963.50;5078352;28;19926;-74
2024/01/16 00:56:09;;;;;;;;;;;;;;;0.47;100.00;100960.91;5078349;28;19916;-74
2024/01/16 00:58:35;;;;;;;;;;;;;;;0.52;100.00;100971.25;5092669;28;20119;-74
2024/01/16 01:01:00;;;;;;;;;;;;;;;0.54;100.00;100972.94;5094558;28;19919;-74
2024/01/16 01:03:25;;;;;;;;;;;;;;;0.61;100.00;100978.16;5095444;28;19916;-74
2024/01/16 01:05:51;;;;;;;;;;;;;;;0.61;100.00;100971.25;5095562;28;20185;-74
2024/01/16 01:08:16;;;;;;;;;;;;;;;0.68;100.00;100967.84;5083390;28;19973;-74
2024/01/16 01:10:42;;;;;;;;;;;;;;;0.76;100.00;100975.59;5093449;28;19948;-74
2024/01/16 01:13:07;;;;;;;;;;;;;;;0.82;100.00;100974.72;5095228;28;19916;-74
2024/01/16 01:15:32;;;;;;;;;;;;;;;0.82;100.00;100974.72;5112283;28;20092;-74
2024/01/16 01:17:58;;;;;;;;;;;;;;;0.87;100.00;100981.59;5107936;28;19916;-74
2024/01/16 01:20:23;;;;;;;;;;;;;;;0.90;100.00;100979.03;5091951;28;19994;-74
2024/01/16 01:22:48;;;;;;;;;;;;;;;0.86;100.00;100985.06;5074810;28;19917;-74
2024/01/16 01:25:13;;;;;;;;;;;;;;;0.88;100.00;100972.19;5088727;28;19923;-74
2024/01/16 01:27:39;;;;;;;;;;;;;;;0.92;100.00;100986.78;5094123;28;19989;-74
2024/01/16 01:30:05;;;;;;;;;;;;;;;0.97;100.00;100981.66;5086624;28;19924;-74
2024/01/16 01:32:30;;;;;;;;;;;;;;;0.98;100.00;100986.78;5095105;28;19957;-74
2024/01/16 01:34:55;;;;;;;;;;;;;;;1.01;100.00;100991.09;5094372;28;20231;-74
2024/01/16 01:37:21;;;;;;;;;;;;;;;0.95;100.00;101002.28;5095104;28;20259;-74
2024/01/16 01:39:46;;;;;;;;;;;;;;;0.85;100.00;101003.09;5086515;28;19920;-74
2024/01/16 01:42:11;;;;;;;;;;;;;;;0.74;100.00;101003.09;5095124;28;19999;-74
2024/01/16 01:44:37;;;;;;;;;;;;;;;0.83;100.00;101005.69;5093644;28;19916;-74
2024/01/16 01:47:02;;;;;;;;;;;;;;;0.81;100.00;101004.81;5094851;28;19912;-74
2024/01/16 01:49:28;;;;;;;;;;;;;;;0.80;100.00;101012.53;5094491;28;19919;-74
2024/01/16 01:51:54;;;;;;;;;;;;;;;0.81;100.00;100997.09;5094248;28;19958;-74
2024/01/16 01:54:20;;;;;;;;;;;;;;;0.83;100.00;100997.09;5094358;28;19916;-74
2024/01/16 01:56:46;;;;;;;;;;;;;;;0.84;100.00;100994.53;5083348;28;20274;-74
2024/01/16 01:59:13;;;;;;;;;;;;;;;0.88;100.00;100996.25;5082464;28;20356;-74
2024/01/16 02:01:39;;;;;;;;;;;;;;;0.92;100.00;100991.94;5094963;28;19908;-74
2024/01/16 02:04:06;;;;;;;;;;;;;;;0.94;100.00;100977.34;5093904;28;19981;-74
2024/01/16 02:06:31;;;;;;;;;;;;;;;0.92;100.00;100979.91;5095235;28;19924;-74
2024/01/16 02:08:56;;;;;;;;;;;;;;;0.88;100.00;100985.94;5092805;28;19942;-74
2024/01/16 02:11:22;;;;;;;;;;;;;;;0.84;100.00;100991.09;5094511;28;19954;-74
2024/01/16 02:13:47;;;;;;;;;;;;;;;0.76;100.00;100985.91;5094820;28;20191;-74
2024/01/16 02:16:18;;;;;;;;;;;;;;;0.79;100.00;101000.53;5079208;28;20238;-74
2024/01/16 02:18:44;;;;;;;;;;;;;;;0.65;100.00;101000.47;5094547;28;19963;-74
2024/01/16 02:21:09;;;;;;;;;;;;;;;0.63;100.00;100997.91;5092615;28;19966;-74
2024/01/16 02:23:35;;;;;;;;;;;;;;;0.57;100.00;100997.88;5083122;28;19924;-74
2024/01/16 02:26:00;;;;;;;;;;;;;;;0.61;100.00;100996.19;5077314;28;20208;-74
2024/01/16 02:28:26;;;;;;;;;;;;;;;0.59;100.00;100990.16;5074229;28;19916;-74
2024/01/16 02:30:51;;;;;;;;;;;;;;;0.56;100.00;100986.72;5078168;28;19948;-75
2024/01/16 02:33:16;;;;;;;;;;;;;;;0.50;100.00;100991.00;5079619;28;19920;-74
2024/01/16 02:35:41;;;;;;;;;;;;;;;0.50;100.00;100989.28;5087026;28;19920;-74
2024/01/16 02:38:07;;;;;;;;;;;;;;;0.50;100.00;100993.56;5073853;28;19940;-74
2024/01/16 02:40:32;;;;;;;;;;;;;;;0.55;100.00;100987.56;5075345;28;19959;-74
2024/01/16 02:42:57;;;;;;;;;;;;;;;0.52;100.00;100989.28;5073793;28;20059;-74
2024/01/16 02:45:22;;;;;;;;;;;;;;;0.42;100.00;100972.94;5084042;28;20449;-74
2024/01/16 02:47:48;;;;;;;;;;;;;;;0.43;100.00;100976.38;5092527;28;20218;-74
2024/01/16 02:50:13;;;;;;;;;;;;;;;0.50;100.00;100975.53;5087946;28;19919;-74
2024/01/16 02:52:38;;;;;;;;;;;;;;;0.54;100.00;100960.06;5093556;28;20195;-75
2024/01/16 02:55:04;;;;;;;;;;;;;;;0.58;100.00;100963.50;5093939;28;20222;-75
2024/01/16 02:57:30;;;;;;;;;;;;;;;0.57;100.00;100965.25;5076758;28;20373;-75
2024/01/16 02:59:55;;;;;;;;;;;;;;;0.62;100.00;100959.22;5078875;28;19924;-75
2024/01/16 03:02:20;;;;;;;;;;;;;;;0.66;100.00;100968.72;5079451;28;19929;-74
2024/01/16 03:04:46;;;;;;;;;;;;;;;0.63;100.00;100966.13;5078264;28;19920;-74
2024/01/16 03:07:11;;;;;;;;;;;;;;;0.56;100.00;100968.69;5081925;28;19920;-73
2024/01/16 03:09:36;;;;;;;;;;;;;;;0.53;100.00;100966.09;5076491;28;19974;-73
2024/01/16 03:12:02;;;;;;;;;;;;;;;0.57;100.00;100967.81;5083468;28;20123;-73
2024/01/16 03:14:27;;;;;;;;;;;;;;;0.64;100.00;100958.38;5075183;28;19916;-73
2024/01/16 03:16:52;;;;;;;;;;;;;;;0.59;100.00;100951.50;5093607;28;20231;-73
2024/01/16 03:19:17;;;;;;;;;;;;;;;0.61;100.00;100949.78;5094323;28;20070;-73
2024/01/16 03:21:43;;;;;;;;;;;;;;;0.56;100.00;100947.19;5087310;28;20239;-73
2024/01/16 03:24:10;;;;;;;;;;;;;;;0.57;100.00;100941.19;5097018;28;20204;-73
2024/01/16 03:26:38;;;;;;;;;;;;;;;0.57;100.00;100936.88;5096130;28;19912;-73
2024/01/16 03:29:03;;;;;;;;;;;;;;;0.60;100.00;100943.78;5078257;28;19924;-73
2024/01/16 03:31:28;;;;;;;;;;;;;;;0.57;100.00;100943.75;5092479;28;20163;-73
2024/01/16 03:33:53;;;;;;;;;;;;;;;0.56;100.00;100945.50;5077394;28;19954;-76
2024/01/16 03:36:19;;;;;;;;;;;;;;;0.55;100.00;100943.75;5092645;28;19920;-76
2024/01/16 03:38:44;;;;;;;;;;;;;;;0.54;100.00;100939.44;5095567;28;20022;-76
2024/01/16 03:41:12;;;;;;;;;;;;;;;0.51;100.00;100942.03;5084292;28;20139;-76
2024/01/16 03:43:37;;;;;;;;;;;;;;;0.47;100.00;100942.88;5092764;28;19927;-76
2024/01/16 03:46:03;;;;;;;;;;;;;;;0.49;100.00;100945.44;5097066;28;19920;-76
2024/01/16 03:48:28;;;;;;;;;;;;;;;0.46;100.00;100941.16;5096540;28;19920;-76
2024/01/16 03:50:56;;;;;;;;;;;;;;;0.47;100.00;100944.59;5096442;28;20123;-76
2024/01/16 03:53:22;;;;;;;;;;;;;;;0.47;100.00;100942.88;5086432;28;20216;-76
2024/01/16 03:55:48;;;;;;;;;;;;;;;0.49;100.00;100942.88;5086294;28;19949;-77
2024/01/16 03:58:13;;;;;;;;;;;;;;;0.46;100.00;100940.31;5082816;28;19951;-77
2024/01/16 04:00:38;;;;;;;;;;;;;;;0.39;100.00;100944.56;5084417;28;20219;-77
2024/01/16 04:03:04;;;;;;;;;;;;;;;0.45;100.00;100952.31;5090973;28;19920;-77
2024/01/16 04:05:29;;;;;;;;;;;;;;;0.51;100.00;100954.03;5093853;28;19920;-77
2024/01/16 04:07:54;;;;;;;;;;;;;;;0.59;100.00;100951.50;5094294;28;20380;-77
2024/01/16 04:10:19;;;;;;;;;;;;;;;0.59;100.00;100954.09;5081685;28;19979;-77
2024/01/16 04:12:45;;;;;;;;;;;;;;;0.56;100.00;100954.91;5086200;28;19920;-77
2024/01/16 04:15:10;;;;;;;;;;;;;;;0.58;100.00;100940.31;5079789;28;20003;-77
2024/01/16 04:17:35;;;;;;;;;;;;;;;0.63;100.00;100940.34;5096821;28;19923;-77
2024/01/16 04:20:00;;;;;;;;;;;;;;;0.61;100.00;100940.34;5079981;28;19925;-77
2024/01/16 04:22:25;;;;;;;;;;;;;;;0.60;100.00;100933.47;5096564;28;19944;-77
2024/01/16 04:24:51;;;;;;;;;;;;;;;0.60;100.00;100928.31;5080727;28;19924;-77
2024/01/16 04:27:16;;;;;;;;;;;;;;;0.55;100.00;100928.28;5088376;28;19985;-77
2024/01/16 04:29:41;;;;;;;;;;;;;;;0.53;100.00;100922.28;5077240;28;20112;-77
2024/01/16 04:32:07;;;;;;;;;;;;;;;0.52;100.00;100927.44;5094613;28;20207;-77
2024/01/16 04:34:34;;;;;;;;;;;;;;;0.51;100.00;100923.13;5095940;28;20026;-77
2024/01/16 04:36:59;;;;;;;;;;;;;;;0.49;100.00;100914.53;5096346;28;19920;-77
2024/01/16 04:39:25;;;;;;;;;;;;;;;0.49;100.00;100914.53;5095833;28;19943;-77
2024/01/16 04:41:50;;;;;;;;;;;;;;;0.49;100.00;100915.41;5094564;28;19931;-77
2024/01/16 04:44:15;;;;;;;;;;;;;;;0.49;100.00;100924.84;5081379;28;19987;-77
2024/01/16 04:46:40;;;;;;;;;;;;;;;0.47;100.00;100917.09;5096284;28;19919;-77
2024/01/16 04:49:06;;;;;;;;;;;;;;;0.45;100.00;100915.38;5092534;28;19920;-77
2024/01/16 04:51:31;;;;;;;;;;;;;;;0.45;100.00;100923.13;5092507;28;19912;-77
2024/01/16 04:53:56;;;;;;;;;;;;;;;0.44;100.00;100919.69;5095164;28;19945;-77
2024/01/16 04:56:21;;;;;;;;;;;;;;;0.43;100.00;100915.38;5086724;28;19919;-77
2024/01/16 04:58:47;;;;;;;;;;;;;;;0.42;100.00;100913.69;5080416;28;19916;-77
2024/01/16 05:01:13;;;;;;;;;;;;;;;0.42;100.00;100908.53;5086241;28;19927;-77
2024/01/16 05:03:38;;;;;;;;;;;;;;;0.43;100.00;100906.78;5095767;28;20037;-77
2024/01/16 05:06:03;;;;;;;;;;;;;;;0.40;100.00;100907.66;5088090;28;19927;-77
2024/01/16 05:08:30;;;;;;;;;;;;;;;0.40;100.00;100905.09;5095630;28;19944;-77
2024/01/16 05:10:55;;;;;;;;;;;;;;;0.40;100.00;100893.91;5094985;28;19924;-77
2024/01/16 05:13:20;;;;;;;;;;;;;;;0.38;100.00;100892.19;5095920;28;20321;-77
2024/01/16 05:15:46;;;;;;;;;;;;;;;0.37;100.00;100881.88;5094625;28;20235;-77
2024/01/16 05:18:11;;;;;;;;;;;;;;;0.36;100.00;100883.59;5095619;28;19961;-77
2024/01/16 05:20:36;;;;;;;;;;;;;;;0.36;100.00;100878.47;5088746;28;19920;-77
2024/01/16 05:23:02;;;;;;;;;;;;;;;0.36;100.00;100877.56;5094685;28;19961;-77
2024/01/16 05:25:27;;;;;;;;;;;;;;;0.33;100.00;100870.72;5095120;28;19916;-76
2024/01/16 05:27:52;;;;;;;;;;;;;;;0.31;100.00;100872.44;5074961;28;20199;-77
2024/01/16 05:30:17;;;;;;;;;;;;;;;0.30;100.00;100862.97;5075945;28;19923;-77
2024/01/16 05:32:42;;;;;;;;;;;;;;;0.31;100.00;100863.81;5095146;28;19950;-77
2024/01/16 05:35:09;;;;;;;;;;;;;;;0.29;100.00;100865.53;5095201;28;19937;-76
2024/01/16 05:37:34;;;;;;;;;;;;;;;0.26;100.00;100855.25;5094781;28;19916;-77
2024/01/16 05:40:00;;;;;;;;;;;;;;;0.25;100.00;100854.38;5094770;28;20013;-77
2024/01/16 05:42:25;;;;;;;;;;;;;;;0.27;100.00;100864.69;5094810;28;20153;-77
2024/01/16 05:44:53;;;;;;;;;;;;;;;0.29;100.00;100857.81;5094391;28;19928;-77
2024/01/16 05:47:18;;;;;;;;;;;;;;;0.30;100.00;100849.22;5079667;28;20141;-77
2024/01/16 05:49:43;;;;;;;;;;;;;;;0.32;100.00;100850.09;5075050;28;20269;-77
2024/01/16 05:52:09;;;;;;;;;;;;;;;0.34;100.00;100845.78;5082856;28;20155;-77
2024/01/16 05:54:34;;;;;;;;;;;;;;;0.37;100.00;100843.22;5081415;28;19923;-77
2024/01/16 05:56:59;;;;;;;;;;;;;;;0.41;100.00;100844.09;5093702;28;19991;-77
2024/01/16 05:59:25;;;;;;;;;;;;;;;0.43;100.00;100843.22;5094631;28;20146;-77
2024/01/16 06:01:50;;;;;;;;;;;;;;;0.43;100.00;100844.97;5086569;28;19991;-77
2024/01/16 06:04:15;;;;;;;;;;;;;;;0.46;100.00;100838.09;5094552;28;19969;-77
2024/01/16 06:06:45;;;;;;;;;;;;;;;0.48;100.00;100843.25;5081984;28;20119;-77
2024/01/16 06:09:13;;;;;;;;;;;;;;;0.49;100.00;100837.22;5092522;28;19930;-77
2024/01/16 06:11:40;;;;;;;;;;;;;;;0.51;100.00;100838.97;5077178;28;19912;-77
2024/01/16 06:14:06;;;;;;;;;;;;;;;0.53;100.00;100829.50;5094447;28;19955;-77
2024/01/16 06:16:31;;;;;;;;;;;;;;;0.53;100.00;100839.81;5082097;28;20167;-77
2024/01/16 06:18:56;;;;;;;;;;;;;;;0.52;100.00;100838.06;5093997;28;19920;-77
2024/01/16 06:21:22;;;;;;;;;;;;;;;0.53;100.00;100838.97;5094433;28;19916;-76
2024/01/16 06:23:47;;;;;;;;;;;;;;;0.53;100.00;100832.09;5076803;28;19920;-77
2024/01/16 06:26:12;;;;;;;;;;;;;;;0.50;100.00;100832.06;5092950;28;19920;-77
2024/01/16 06:28:37;;;;;;;;;;;;;;;0.52;100.00;100834.66;5080075;28;19920;-77
2024/01/16 06:31:03;;;;;;;;;;;;;;;0.53;100.00;100841.53;5083236;28;19948;-77
2024/01/16 06:33:28;;;;;;;;;;;;;;;0.47;100.00;100850.09;5085611;28;19920;-77
2024/01/16 06:35:56;;;;;;;;;;;;;;;0.36;100.00;100846.66;5079670;28;20051;-77
2024/01/16 06:38:21;;;;;;;;;;;;;;;0.32;100.00;100848.38;5083633;28;19927;-77
2024/01/16 06:40:47;;;;;;;;;;;;;;;0.33;100.00;100856.97;5094167;28;20416;-77
2024/01/16 06:43:15;;;;;;;;;;;;;;;0.36;100.00;100849.22;5087233;28;20246;-77
2024/01/16 06:45:40;;;;;;;;;;;;;;;0.33;100.00;100847.53;5087804;28;20173;-77
2024/01/16 06:48:05;;;;;;;;;;;;;;;0.30;100.00;100846.66;5082270;28;19995;-77
2024/01/16 06:50:31;;;;;;;;;;;;;;;0.27;100.00;100841.50;5085989;28;19947;-77
2024/01/16 06:52:56;;;;;;;;;;;;;;;0.26;100.00;100840.63;5092693;28;19940;-77
2024/01/16 06:55:21;;;;;;;;;;;;;;;0.24;100.00;100846.63;5094876;28;19924;-77
2024/01/16 06:57:47;;;;;;;;;;;;;;;0.19;100.00;100846.63;5086181;28;19920;-77
2024/01/16 07:00:14;;;;;;;;;;;;;;;0.18;100.00;100850.06;5086535;28;19924;-77
2024/01/16 07:02:39;;;;;;;;;;;;;;;0.17;100.00;100849.19;5097670;28;20281;-77
2024/01/16 07:05:04;;;;;;;;;;;;;;;0.18;100.00;100852.63;5088331;28;19916;-77
2024/01/16 07:07:30;;;;;;;;;;;;;;;0.18;100.00;100852.63;5090759;28;20164;-77
2024/01/16 07:09:55;;;;;;;;;;;;;;;0.20;100.00;100853.53;5090273;28;19912;-77
2024/01/16 07:12:20;;;;;;;;;;;;;;;0.22;100.00;100849.22;5098158;28;19938;-77
2024/01/16 07:14:46;;;;;;;;;;;;;;;0.25;100.00;100851.78;5097226;28;20469;-77
2024/01/16 07:17:11;;;;;;;;;;;;;;;0.27;100.00;100857.78;5097406;28;19927;-77
2024/01/16 07:19:36;;;;;;;;;;;;;;;0.30;100.00;100854.38;5095514;28;19932;-76
2024/01/16 07:22:02;;;;;;;;;;;;;;;0.25;100.00;100861.25;5095824;28;19919;-76
2024/01/16 07:24:27;;;;;;;;;;;;;;;0.20;100.00;100866.41;5093641;28;19920;-76
2024/01/16 07:26:54;;;;;;;;;;;;;;;0.21;100.00;100869.81;5095907;28;20015;-76
2024/01/16 07:29:19;;;;;;;;;;;;;;;0.19;100.00;100868.09;5095941;28;19921;-76
2024/01/16 07:31:45;;;;;;;;;;;;;;;0.16;100.00;100875.84;5095893;28;19946;-76
2024/01/16 07:34:10;;;;;;;;;;;;;;;0.17;100.00;100871.53;5094254;28;19951;-77
2024/01/16 07:36:35;;;;;;;;;;;;;;;0.26;100.00;100881.00;5096422;28;20132;-77
2024/01/16 07:39:01;;;;;;;;;;;;;;;0.29;100.00;100883.56;5095244;28;19978;-77
2024/01/16 07:41:26;;;;;;;;;;;;;;;0.28;100.00;100887.88;5095439;28;19927;-77
2024/01/16 07:43:51;;;;;;;;;;;;;;;0.23;100.00;100881.00;5095140;28;20201;-77
2024/01/16 07:46:16;;;;;;;;;;;;;;;0.24;100.00;100888.72;5110351;28;19923;-76
2024/01/16 07:48:42;;;;;;;;;;;;;;;0.26;100.00;100888.72;5093994;28;20190;-76
2024/01/16 07:51:07;;;;;;;;;;;;;;;0.25;100.00;100889.56;5085781;28;19921;-76
2024/01/16 07:53:32;;;;;;;;;;;;;;;0.29;100.00;100886.16;5077107;28;19916;-76
2024/01/16 07:55:58;;;;;;;;;;;;;;;0.28;100.00;100887.03;5093514;28;19924;-76
2024/01/16 07:58:23;;;;;;;;;;;;;;;0.25;100.00;100887.84;5092553;28;19931;-76
2024/01/16 08:00:49;;;;;;;;;;;;;;;0.30;100.00;100887.88;5095174;28;20088;-77
2024/01/16 08:03:17;;;;;;;;;;;;;;;0.27;100.00;100890.44;5097490;28;20018;-77
2024/01/16 08:05:42;;;;;;;;;;;;;;;0.25;100.00;100879.28;5098453;28;19919;-77
2024/01/16 08:08:10;;;;;;;;;;;;;;;0.32;100.00;100878.44;5095808;28;20217;-77
2024/01/16 08:10:36;;;;;;;;;;;;;;;0.31;100.00;100887.00;5093276;28;19952;-77
2024/01/16 08:13:01;;;;;;;;;;;;;;;0.31;100.00;100889.56;5095546;28;19920;-77
2024/01/16 08:15:26;;;;;;;;;;;;;;;0.31;100.00;100885.31;5095272;28;20111;-77
2024/01/16 08:17:52;;;;;;;;;;;;;;;0.35;100.00;100884.44;5095395;28;19922;-77
2024/01/16 08:20:17;;;;;;;;;;;;;;;0.31;100.00;100887.00;5098460;28;19916;-77
2024/01/16 08:22:42;;;;;;;;;;;;;;;0.37;100.00;100895.63;5094815;28;19926;-77
2024/01/16 08:25:08;;;;;;;;;;;;;;;0.42;100.00;100881.88;5094034;28;19939;-77
2024/01/16 08:27:33;;;;;;;;;;;;;;;0.50;100.00;100887.91;5097140;28;19912;-77
2024/01/16 08:29:59;;;;;;;;;;;;;;;0.57;100.00;100885.34;5093557;28;19930;-77
2024/01/16 08:32:24;;;;;;;;;;;;;;;0.62;100.00;100885.34;5094496;28;19920;-77
2024/01/16 08:34:49;;;;;;;;;;;;;;;0.60;100.00;100889.66;5083231;28;19920;-77
2024/01/16 08:37:14;;;;;;;;;;;;;;;0.62;100.00;100889.63;5086489;28;20254;-77
2024/01/16 08:39:39;;;;;;;;;;;;;;;0.63;100.00;100894.78;5088346;28;20212;-77
2024/01/16 08:42:05;;;;;;;;;;;;;;;0.59;100.00;100881.91;5088919;28;19931;-77
2024/01/16 08:44:30;;;;;;;;;;;;;;;0.56;100.00;100885.34;5101505;28;19920;-77
2024/01/16 08:46:55;;;;;;;;;;;;;;;0.55;100.00;100873.31;5109116;28;20115;-77
2024/01/16 08:49:20;;;;;;;;;;;;;;;0.54;100.00;100882.75;5098926;28;20231;-77
2024/01/16 08:51:46;;;;;;;;;;;;;;;0.59;100.00;100889.66;5084092;28;19935;-77
2024/01/16 08:54:11;;;;;;;;;;;;;;;0.52;100.00;100883.63;5088317;28;19920;-77
2024/01/16 08:56:37;;;;;;;;;;;;;;;0.57;100.00;100885.34;5090960;28;19916;-77
2024/01/16 08:59:02;;;;;;;;;;;;;;;0.49;100.00;100881.03;5091282;28;20154;-77
2024/01/16 09:01:27;;;;;;;;;;;;;;;0.54;100.00;100884.47;5089925;28;19920;-77
2024/01/16 09:03:52;;;;;;;;;;;;;;;0.56;100.00;100872.44;5089908;28;19926;-77
2024/01/16 09:06:18;;;;;;;;;;;;;;;0.60;100.00;100881.03;5090347;28;19930;-77
2024/01/16 09:08:44;;;;;;;;;;;;;;;0.64;100.00;100883.63;5089801;28;19920;-77
2024/01/16 09:11:10;;;;;;;;;;;;;;;0.66;100.00;100888.81;5091041;28;20272;-77
2024/01/16 09:13:36;;;;;;;;;;;;;;;0.70;100.00;100888.78;5087200;28;19916;-77
2024/01/16 09:16:01;;;;;;;;;;;;;;;0.66;100.00;100894.81;5086146;28;19920;-77
2024/01/16 09:18:27;;;;;;;;;;;;;;;0.49;100.00;100888.75;5089026;28;19927;-77
2024/01/16 09:20:52;;;;;;;;;;;;;;;0.47;98.39;100887.91;5084233;28;20001;-77
2024/01/16 09:23:17;;;;;;;;;;;;;;;0.45;98.19;100887.91;5077506;28;19921;-77
2024/01/16 09:25:42;;;;;;;;;;;;;;;0.44;97.75;100893.91;5080833;28;19920;-77
2024/01/16 09:28:08;;;;;;;;;;;;;;;0.49;98.39;100892.22;5077258;28;19920;-77
2024/01/16 09:30:33;;;;;;;;;;;;;;;0.50;98.56;100885.34;5081612;28;19978;-77
2024/01/16 09:32:58;;;;;;;;;;;;;;;0.52;98.10;100888.78;5086298;28;19955;-77
2024/01/16 09:35:24;;;;;;;;;;;;;;;0.51;97.61;100887.03;5092688;28;19927;-77
2024/01/16 09:37:49;;;;;;;;;;;;;;;0.50;97.53;100890.50;5092456;28;19957;-77
2024/01/16 09:40:14;;;;;;;;;;;;;;;0.52;97.96;100896.50;5093433;28;19928;-77
2024/01/16 09:42:43;;;;;;;;;;;;;;;0.44;96.86;100888.78;5090784;28;20092;-77
2024/01/16 09:45:08;;;;;;;;;;;;;;;0.48;97.14;100889.63;5083113;28;19958;-77
2024/01/16 09:47:34;;;;;;;;;;;;;;;0.52;97.45;100892.19;5084146;28;19916;-77
2024/01/16 09:50:00;;;;;;;;;;;;;;;0.54;97.78;100889.63;5092888;28;19920;-77
2024/01/16 09:52:25;;;;;;;;;;;;;;;0.55;98.17;100883.63;5090883;28;19927;-77
2024/01/16 09:54:50;;;;;;;;;;;;;;;0.47;97.77;100880.16;5092219;28;20177;-77
2024/01/16 09:57:18;;;;;;;;;;;;;;;0.45;97.31;100880.16;5081228;28;19927;-76
2024/01/16 09:59:43;;;;;;;;;;;;;;;0.45;97.30;100876.72;5082707;28;20005;-77
2024/01/16 10:02:10;;;;;;;;;;;;;;;0.51;97.58;100875.03;5093833;28;20084;-77
2024/01/16 10:04:35;;;;;;;;;;;;;;;0.45;96.56;100869.84;5093422;28;20119;-77
2024/01/16 10:07:01;;;;;;;;;;;;;;;0.51;96.94;100871.56;5092039;28;19990;-77
2024/01/16 10:09:27;;;;;;;;;;;;;;;0.54;96.96;100872.44;5088448;28;19986;-77
2024/01/16 10:11:52;;;;;;;;;;;;;;;0.57;96.57;100876.75;5088478;28;19920;-77
2024/01/16 10:14:18;;;;;;;;;;;;;;;0.60;97.08;100868.16;5090067;28;19947;-77
2024/01/16 10:16:59;;;;;;;;;;;;;;;0.64;97.06;100863.03;5089345;28;20110;-77
2024/01/16 10:19:28;;;;;;;;;;;;;;;0.62;95.50;100874.16;5088299;28;19946;-77
2024/01/16 10:22:00;;;;;;;;;;;;;;;0.62;95.00;100869.91;5088530;28;19942;-77
2024/01/16 10:24:25;;;;;;;;;;;;;;;0.62;94.25;100864.75;5087584;28;19927;-77
2024/01/16 10:26:58;;;;;;;;;;;;;;;0.66;94.03;100860.44;5089115;28;19920;-76
2024/01/16 10:29:23;;;;;;;;;;;;;;;0.68;94.29;100869.03;5089848;28;20414;-76
2024/01/16 10:31:48;;;;;;;;;;;;;;;0.73;94.37;100857.88;5090886;28;19990;-76
2024/01/16 10:34:21;;;;;;;;;;;;;;;0.76;94.88;100860.44;5091910;28;20354;-77
2024/01/16 10:36:46;;;;;;;;;;;;;;;0.76;93.74;100857.88;5093095;28;19991;-77
2024/01/16 10:39:13;;;;;;;;;;;;;;;0.76;92.98;100857.00;5091771;28;20261;-77
2024/01/16 10:41:38;;;;;;;;;;;;;;;0.77;92.64;100858.72;5093341;28;20158;-77
2024/01/16 10:44:05;;;;;;;;;;;;;;;0.82;92.90;100864.75;5092754;28;20081;-77
2024/01/16 10:46:30;;;;;;;;;;;;;;;0.80;92.48;100857.84;5077987;28;19951;-77
2024/01/16 10:49:00;;;;;;;;;;;;;;;0.81;92.19;100849.28;5074074;28;19924;-76
2024/01/16 10:51:26;;;;;;;;;;;;;;;0.81;91.70;100852.69;5077257;28;19920;-76
2024/01/16 10:53:55;;;;;;;;;;;;;;;0.84;91.78;100844.97;5074534;28;19995;-77
2024/01/16 10:56:21;;;;;;;;;;;;;;;0.89;92.75;100848.41;5077059;28;19955;-77
2024/01/16 10:58:51;;;;;;;;;;;;;;;0.93;93.30;100846.69;5075039;28;19928;-77
2024/01/16 11:01:17;;;;;;;;;;;;;;;0.97;93.30;100842.38;5078888;28;20120;-76
2024/01/16 11:03:49;;;;;;;;;;;;;;;1.01;92.68;100831.19;5087363;28;19920;-76
2024/01/16 11:06:18;;;;;;;;;;;;;;;1.00;91.09;100832.03;5082931;28;20100;-77
2024/01/16 11:08:52;;;;;;;;;;;;;;;1.01;90.83;100832.06;5093217;28;19916;-77
2024/01/16 11:11:17;;;;;;;;;;;;;;;1.06;91.79;100832.06;5093117;28;19924;-77
2024/01/16 11:13:44;;;;;;;;;;;;;;;0.95;89.18;100825.19;5082043;28;19995;-77
2024/01/16 11:16:12;;;;;;;;;;;;;;;0.96;89.80;100823.47;5092850;28;19932;-77
2024/01/16 11:18:38;;;;;;;;;;;;;;;0.92;91.28;100820.03;5091064;28;20934;-77
2024/01/16 11:21:13;;;;;;;;;;;;;;;0.99;91.85;100814.88;5080532;28;20278;-77
2024/01/16 11:23:38;;;;;;;;;;;;;;;1.02;92.70;100813.16;5085167;28;19946;-77
2024/01/16 11:26:22;;;;;;;;;;;;;;;0.98;91.17;100810.56;5092218;28;19920;-77
2024/01/16 11:28:48;;;;;;;;;;;;;;;0.90;90.56;100805.44;5091755;28;20214;-77
2024/01/16 11:31:27;;;;;;;;;;;;;;;0.89;90.56;100802.00;5091858;28;20127;-77
2024/01/16 11:33:52;;;;;;;;;;;;;;;0.90;90.21;100808.84;5089509;28;19927;-77
2024/01/16 11:36:36;;;;;;;;;;;;;;;0.90;90.73;100806.28;5089373;28;20145;-77
2024/01/16 11:39:02;;;;;;;;;;;;;;;0.90;90.66;100806.28;5085636;28;20219;-77
2024/01/16 11:41:46;;;;;;;;;;;;;;;0.87;90.35;100798.53;5089028;28;19924;-77
2024/01/16 11:44:31;;;;;;;;;;;;;;;0.91;90.49;100802.84;5088929;28;19920;-77
2024/01/16 11:47:00;;;;;;;;;;;;;;;0.93;89.47;100811.44;5089446;28;19989;-77
2024/01/16 11:49:25;;;;;;;;;;;;;;;1.01;90.32;100801.09;5087633;28;19934;-77
2024/01/16 11:51:51;;;;;;;;;;;;;;;1.07;90.10;100803.66;5088136;28;20195;-77
2024/01/16 11:54:16;;;;;;;;;;;;;;;1.09;90.60;100801.06;5089391;28;19930;-77
2024/01/16 11:56:59;;;;;;;;;;;;;;;1.07;89.66;100801.06;5090809;28;19920;-77
2024/01/16 11:59:40;;;;;;;;;;;;;;;1.06;89.69;100801.97;5093645;28;19924;-77
2024/01/16 12:02:10;;;;;;;;;;;;;;;1.05;90.38;100794.22;5092532;28;19932;-77
2024/01/16 12:04:35;;;;;;;;;;;;;;;1.09;90.46;100790.75;5092237;28;20331;-77
2024/01/16 12:07:00;;;;;;;;;;;;;;;1.13;89.99;100785.59;5091174;28;19931;-77
2024/01/16 12:09:27;;;;;;;;;;;;;;;1.17;90.29;100790.75;5092355;28;20147;-77
2024/01/16 12:12:00;;;;;;;;;;;;;;;1.20;90.74;100785.56;5090187;28;20195;-77
2024/01/16 12:14:26;;;;;;;;;;;;;;;1.20;88.91;100785.56;5088429;28;20272;-77
2024/01/16 12:16:51;;;;;;;;;;;;;;;1.22;89.46;100794.16;5091098;28;20908;-77
2024/01/16 12:19:16;;;;;;;;;;;;;;;1.21;88.10;100787.31;5091811;28;20267;-77
2024/01/16 12:21:43;;;;;;;;;;;;;;;1.21;88.63;100775.25;5093387;28;19943;-77
2024/01/16 12:24:09;;;;;;;;;;;;;;;1.22;89.66;100773.53;5091391;28;19927;-77
2024/01/16 12:26:35;;;;;;;;;;;;;;;1.23;90.15;100773.53;5090491;28;19950;-77
2024/01/16 12:29:00;;;;;;;;;;;;;;;1.25;88.45;100763.22;5089530;28;19947;-77
2024/01/16 12:31:26;;;;;;;;;;;;;;;1.25;89.40;100770.94;5090933;28;19924;-77